sensor_id;sensor_type;location;lat;lon;timestamp;pressure;altitude;pressure_sealevel;temperature;humidity
49044;BME280;34860;48.066;14.124;2022-09-09T00:01:08;96499.84;;;13.87;72.92
49044;BME280;34860;48.066;14.124;2022-09-09T00:04:08;96504.50;;;13.90;72.95
49044;BME280;34860;48.066;14.124;2022-09-09T00:07:04;96493.00;;;13.97;72.62
49044;BME280;34860;48.066;14.124;2022-09-09T00:10:00;96488.81;;;14.02;72.33
49044;BME280;34860;48.066;14.124;2022-09-09T00:12:59;96478.13;;;14.00;72.11
49044;BME280;34860;48.066;14.124;2022-09-09T00:15:57;96486.66;;;13.96;72.03
49044;BME280;34860;48.066;14.124;2022-09-09T00:18:54;96487.28;;;13.91;72.05
49044;BME280;34860;48.066;14.124;2022-09-09T00:21:55;96475.47;;;13.87;72.04
49044;BME280;34860;48.066;14.124;2022-09-09T00:24:52;96481.06;;;13.87;71.94
49044;BME280;34860;48.066;14.124;2022-09-09T00:27:45;96476.38;;;13.84;71.86
49044;BME280;34860;48.066;14.124;2022-09-09T00:30:35;96473.59;;;13.84;72.05
49044;BME280;34860;48.066;14.124;2022-09-09T00:33:27;96477.63;;;13.83;71.85
49044;BME280;34860;48.066;14.124;2022-09-09T00:36:18;96468.94;;;13.81;71.95
49044;BME280;34860;48.066;14.124;2022-09-09T00:39:23;96476.56;;;13.80;71.81
49044;BME280;34860;48.066;14.124;2022-09-09T00:42:15;96483.81;;;13.78;71.83
49044;BME280;34860;48.066;14.124;2022-09-09T00:45:17;96478.53;;;13.80;71.82
49044;BME280;34860;48.066;14.124;2022-09-09T00:48:10;96482.44;;;13.83;72.02
49044;BME280;34860;48.066;14.124;2022-09-09T00:51:07;96471.09;;;13.86;71.72
49044;BME280;34860;48.066;14.124;2022-09-09T00:54:12;96477.78;;;13.89;71.69
49044;BME280;34860;48.066;14.124;2022-09-09T00:57:10;96474.06;;;13.83;71.54
49044;BME280;34860;48.066;14.124;2022-09-09T01:00:19;96473.91;;;13.77;71.83
49044;BME280;34860;48.066;14.124;2022-09-09T01:03:20;96467.38;;;13.71;71.81
49044;BME280;34860;48.066;14.124;2022-09-09T01:06:16;96461.47;;;13.69;71.74
49044;BME280;34860;48.066;14.124;2022-09-09T01:09:13;96463.50;;;13.68;72.03
49044;BME280;34860;48.066;14.124;2022-09-09T01:12:11;96471.25;;;13.73;72.06
49044;BME280;34860;48.066;14.124;2022-09-09T01:15:11;96479.63;;;13.73;71.76
49044;BME280;34860;48.066;14.124;2022-09-09T01:18:09;96475.16;;;13.76;71.64
49044;BME280;34860;48.066;14.124;2022-09-09T01:21:08;96480.09;;;13.81;71.75
49044;BME280;34860;48.066;14.124;2022-09-09T01:24:15;96473.28;;;13.82;71.77
49044;BME280;34860;48.066;14.124;2022-09-09T01:27:40;96473.75;;;13.80;71.81
49044;BME280;34860;48.066;14.124;2022-09-09T01:30:31;96473.91;;;13.77;71.72
49044;BME280;34860;48.066;14.124;2022-09-09T01:33:22;96486.31;;;13.76;71.78
49044;BME280;34860;48.066;14.124;2022-09-09T01:36:15;96480.72;;;13.76;71.79
49044;BME280;34860;48.066;14.124;2022-09-09T01:39:10;96483.53;;;13.76;71.78
49044;BME280;34860;48.066;14.124;2022-09-09T01:42:01;96476.53;;;13.71;72.10
49044;BME280;34860;48.066;14.124;2022-09-09T01:44:51;96479.00;;;13.69;72.14
49044;BME280;34860;48.066;14.124;2022-09-09T01:47:41;96481.47;;;13.67;71.96
49044;BME280;34860;48.066;14.124;2022-09-09T01:50:48;96471.22;;;13.64;71.84
49044;BME280;34860;48.066;14.124;2022-09-09T01:53:39;96476.34;;;13.66;71.91
49044;BME280;34860;48.066;14.124;2022-09-09T01:56:39;96474.34;;;13.66;72.06
49044;BME280;34860;48.066;14.124;2022-09-09T01:59:45;96474.66;;;13.68;71.76
49044;BME280;34860;48.066;14.124;2022-09-09T02:02:45;96481.81;;;13.69;71.81
49044;BME280;34860;48.066;14.124;2022-09-09T02:05:45;96476.84;;;13.73;71.88
49044;BME280;34860;48.066;14.124;2022-09-09T02:08:46;96475.44;;;13.69;71.95
49044;BME280;34860;48.066;14.124;2022-09-09T02:11:36;96475.88;;;13.67;72.13
49044;BME280;34860;48.066;14.124;2022-09-09T02:14:37;96473.88;;;13.58;72.47
49044;BME280;34860;48.066;14.124;2022-09-09T02:17:30;96479.75;;;13.60;72.44
49044;BME280;34860;48.066;14.124;2022-09-09T02:20:31;96466.59;;;13.61;72.47
49044;BME280;34860;48.066;14.124;2022-09-09T02:23:24;96472.63;;;13.50;72.56
49044;BME280;34860;48.066;14.124;2022-09-09T02:26:16;96472.22;;;13.30;73.02
49044;BME280;34860;48.066;14.124;2022-09-09T02:29:16;96470.91;;;13.12;73.55
49044;BME280;34860;48.066;14.124;2022-09-09T02:32:08;96464.50;;;13.02;73.67
49044;BME280;34860;48.066;14.124;2022-09-09T02:35:03;96462.78;;;12.96;74.00
49044;BME280;34860;48.066;14.124;2022-09-09T02:37:57;96460.44;;;12.94;73.81
49044;BME280;34860;48.066;14.124;2022-09-09T02:40:47;96462.72;;;12.86;73.75
49044;BME280;34860;48.066;14.124;2022-09-09T02:43:36;96467.50;;;12.77;73.89
49044;BME280;34860;48.066;14.124;2022-09-09T02:46:37;96475.06;;;12.76;74.15
49044;BME280;34860;48.066;14.124;2022-09-09T02:49:42;96475.75;;;12.89;73.66
49044;BME280;34860;48.066;14.124;2022-09-09T02:52:45;96475.63;;;12.93;73.56
49044;BME280;34860;48.066;14.124;2022-09-09T02:55:41;96477.50;;;12.96;73.28
49044;BME280;34860;48.066;14.124;2022-09-09T02:58:37;96475.75;;;12.89;73.57
49044;BME280;34860;48.066;14.124;2022-09-09T03:01:26;96480.28;;;12.96;73.23
49044;BME280;34860;48.066;14.124;2022-09-09T03:04:16;96480.59;;;12.98;73.05
49044;BME280;34860;48.066;14.124;2022-09-09T03:07:05;96480.00;;;13.03;72.93
49044;BME280;34860;48.066;14.124;2022-09-09T03:09:54;96482.31;;;13.05;72.74
49044;BME280;34860;48.066;14.124;2022-09-09T03:12:47;96480.44;;;13.02;72.90
49044;BME280;34860;48.066;14.124;2022-09-09T03:15:37;96474.72;;;12.96;72.51
49044;BME280;34860;48.066;14.124;2022-09-09T03:18:28;96486.00;;;12.93;72.39
49044;BME280;34860;48.066;14.124;2022-09-09T03:21:17;96471.72;;;12.90;72.42
49044;BME280;34860;48.066;14.124;2022-09-09T03:24:06;96479.00;;;12.88;72.18
49044;BME280;34860;48.066;14.124;2022-09-09T03:26:55;96486.13;;;12.89;72.29
49044;BME280;34860;48.066;14.124;2022-09-09T03:29:46;96483.69;;;12.91;72.19
49044;BME280;34860;48.066;14.124;2022-09-09T03:32:42;96475.47;;;12.97;72.08
49044;BME280;34860;48.066;14.124;2022-09-09T03:35:34;96472.56;;;13.00;72.16
49044;BME280;34860;48.066;14.124;2022-09-09T03:38:23;96480.66;;;13.07;72.10
49044;BME280;34860;48.066;14.124;2022-09-09T03:41:12;96490.75;;;13.14;72.10
49044;BME280;34860;48.066;14.124;2022-09-09T03:44:02;96486.59;;;13.19;72.03
49044;BME280;34860;48.066;14.124;2022-09-09T03:46:58;96493.72;;;13.20;71.80
49044;BME280;34860;48.066;14.124;2022-09-09T03:49:48;96485.81;;;13.18;71.58
49044;BME280;34860;48.066;14.124;2022-09-09T03:52:37;96475.25;;;13.13;71.91
49044;BME280;34860;48.066;14.124;2022-09-09T03:55:32;96472.94;;;13.12;71.96
49044;BME280;34860;48.066;14.124;2022-09-09T03:58:22;96470.13;;;13.12;71.92
49044;BME280;34860;48.066;14.124;2022-09-09T04:01:13;96469.34;;;13.11;72.12
49044;BME280;34860;48.066;14.124;2022-09-09T04:04:05;96470.13;;;13.12;72.10
49044;BME280;34860;48.066;14.124;2022-09-09T04:06:56;96464.88;;;13.14;71.98
49044;BME280;34860;48.066;14.124;2022-09-09T04:09:46;96462.38;;;13.16;71.95
49044;BME280;34860;48.066;14.124;2022-09-09T04:12:35;96461.78;;;13.21;72.03
49044;BME280;34860;48.066;14.124;2022-09-09T04:15:24;96454.50;;;13.23;72.00
49044;BME280;34860;48.066;14.124;2022-09-09T04:18:13;96457.31;;;13.23;71.76
49044;BME280;34860;48.066;14.124;2022-09-09T04:21:08;96464.91;;;13.23;71.77
49044;BME280;34860;48.066;14.124;2022-09-09T04:23:57;96467.69;;;13.23;71.88
49044;BME280;34860;48.066;14.124;2022-09-09T04:26:46;96460.09;;;13.23;71.98
49044;BME280;34860;48.066;14.124;2022-09-09T04:29:35;96461.78;;;13.21;72.10
49044;BME280;34860;48.066;14.124;2022-09-09T04:32:24;96462.22;;;13.19;72.33
49044;BME280;34860;48.066;14.124;2022-09-09T04:35:14;96462.72;;;13.27;72.19
49044;BME280;34860;48.066;14.124;2022-09-09T04:38:06;96466.03;;;13.35;71.99
49044;BME280;34860;48.066;14.124;2022-09-09T04:40:56;96467.00;;;13.41;71.83
49044;BME280;34860;48.066;14.124;2022-09-09T04:43:46;96472.88;;;13.43;72.08
49044;BME280;34860;48.066;14.124;2022-09-09T04:46:36;96473.06;;;13.49;72.07
49044;BME280;34860;48.066;14.124;2022-09-09T04:49:25;96477.88;;;13.57;71.92
49044;BME280;34860;48.066;14.124;2022-09-09T04:52:14;96485.97;;;13.65;71.68
49044;BME280;34860;48.066;14.124;2022-09-09T04:55:07;96491.88;;;13.67;71.65
49044;BME280;34860;48.066;14.124;2022-09-09T04:57:57;96484.25;;;13.58;71.62
49044;BME280;34860;48.066;14.124;2022-09-09T05:00:46;96483.16;;;13.55;71.61
49044;BME280;34860;48.066;14.124;2022-09-09T05:03:35;96488.59;;;13.59;71.66
49044;BME280;34860;48.066;14.124;2022-09-09T05:06:27;96474.63;;;13.59;71.59
49044;BME280;34860;48.066;14.124;2022-09-09T05:09:18;96487.97;;;13.64;71.57
49044;BME280;34860;48.066;14.124;2022-09-09T05:12:09;96479.00;;;13.69;71.48
49044;BME280;34860;48.066;14.124;2022-09-09T05:15:05;96486.47;;;13.72;71.64
49044;BME280;34860;48.066;14.124;2022-09-09T05:17:57;96491.44;;;13.77;71.68
49044;BME280;34860;48.066;14.124;2022-09-09T05:20:48;96490.19;;;13.78;71.78
49044;BME280;34860;48.066;14.124;2022-09-09T05:23:38;96490.94;;;13.70;72.13
49044;BME280;34860;48.066;14.124;2022-09-09T05:26:28;96505.53;;;13.65;72.38
49044;BME280;34860;48.066;14.124;2022-09-09T05:29:20;96506.00;;;13.63;72.42
49044;BME280;34860;48.066;14.124;2022-09-09T05:32:10;96486.94;;;13.71;72.37
49044;BME280;34860;48.066;14.124;2022-09-09T05:35:03;96490.97;;;13.79;72.00
49044;BME280;34860;48.066;14.124;2022-09-09T05:37:52;96486.59;;;13.69;72.35
49044;BME280;34860;48.066;14.124;2022-09-09T05:40:47;96494.19;;;13.59;72.78
49044;BME280;34860;48.066;14.124;2022-09-09T05:43:37;96500.44;;;13.72;72.60
49044;BME280;34860;48.066;14.124;2022-09-09T05:46:27;96495.31;;;13.89;72.12
49044;BME280;34860;48.066;14.124;2022-09-09T05:49:17;96483.25;;;14.02;71.59
49044;BME280;34860;48.066;14.124;2022-09-09T05:52:07;96479.06;;;14.15;71.41
49044;BME280;34860;48.066;14.124;2022-09-09T05:54:57;96478.91;;;14.28;71.10
49044;BME280;34860;48.066;14.124;2022-09-09T05:57:48;96471.13;;;14.32;70.95
49044;BME280;34860;48.066;14.124;2022-09-09T06:00:39;96462.59;;;14.36;71.00
49044;BME280;34860;48.066;14.124;2022-09-09T06:03:29;96467.25;;;14.39;70.97
49044;BME280;34860;48.066;14.124;2022-09-09T06:06:20;96462.44;;;14.40;71.00
49044;BME280;34860;48.066;14.124;2022-09-09T06:09:10;96464.47;;;14.39;71.10
49044;BME280;34860;48.066;14.124;2022-09-09T06:12:01;96459.63;;;14.30;71.17
49044;BME280;34860;48.066;14.124;2022-09-09T06:14:53;96461.97;;;14.32;71.26
49044;BME280;34860;48.066;14.124;2022-09-09T06:17:43;96469.72;;;14.28;71.43
49044;BME280;34860;48.066;14.124;2022-09-09T06:20:34;96477.03;;;14.25;71.24
49044;BME280;34860;48.066;14.124;2022-09-09T06:23:22;96479.53;;;14.23;71.29
49044;BME280;34860;48.066;14.124;2022-09-09T06:26:13;96479.53;;;14.23;71.39
49044;BME280;34860;48.066;14.124;2022-09-09T06:29:04;96466.03;;;14.22;71.33
49044;BME280;34860;48.066;14.124;2022-09-09T06:31:54;96468.66;;;14.25;71.47
49044;BME280;34860;48.066;14.124;2022-09-09T06:34:45;96478.09;;;14.28;71.46
49044;BME280;34860;48.066;14.124;2022-09-09T06:37:37;96469.25;;;14.29;71.24
49044;BME280;34860;48.066;14.124;2022-09-09T06:40:26;96470.66;;;14.34;71.29
49044;BME280;34860;48.066;14.124;2022-09-09T06:43:16;96470.19;;;14.35;71.23
49044;BME280;34860;48.066;14.124;2022-09-09T06:46:10;96465.22;;;14.40;71.22
49044;BME280;34860;48.066;14.124;2022-09-09T06:49:00;96454.97;;;14.37;71.51
49044;BME280;34860;48.066;14.124;2022-09-09T06:51:49;96457.47;;;14.34;71.89
49044;BME280;34860;48.066;14.124;2022-09-09T06:54:41;96470.66;;;14.43;71.77
49044;BME280;34860;48.066;14.124;2022-09-09T06:57:30;96477.94;;;14.50;71.68
49044;BME280;34860;48.066;14.124;2022-09-09T07:00:23;96477.63;;;14.57;71.93
49044;BME280;34860;48.066;14.124;2022-09-09T07:03:12;96483.53;;;14.59;71.86
49044;BME280;34860;48.066;14.124;2022-09-09T07:06:01;96495.84;;;14.62;71.96
49044;BME280;34860;48.066;14.124;2022-09-09T07:08:52;96487.28;;;14.65;72.14
49044;BME280;34860;48.066;14.124;2022-09-09T07:11:48;96493.50;;;14.69;71.93
49044;BME280;34860;48.066;14.124;2022-09-09T07:14:38;96496.56;;;14.81;71.87
49044;BME280;34860;48.066;14.124;2022-09-09T07:17:28;96497.94;;;14.95;71.64
49044;BME280;34860;48.066;14.124;2022-09-09T07:20:19;96485.78;;;14.98;71.64
49044;BME280;34860;48.066;14.124;2022-09-09T07:23:09;96497.59;;;15.02;71.75
49044;BME280;34860;48.066;14.124;2022-09-09T07:25:58;96497.31;;;15.00;72.08
49044;BME280;34860;48.066;14.124;2022-09-09T07:28:49;96498.19;;;15.06;72.08
49044;BME280;34860;48.066;14.124;2022-09-09T07:31:39;96514.19;;;15.15;71.96
49044;BME280;34860;48.066;14.124;2022-09-09T07:34:32;96503.31;;;15.17;71.96
49044;BME280;34860;48.066;14.124;2022-09-09T07:37:21;96506.03;;;15.35;71.72
49044;BME280;34860;48.066;14.124;2022-09-09T07:40:12;96506.75;;;15.54;71.37
49044;BME280;34860;48.066;14.124;2022-09-09T07:43:01;96517.00;;;15.57;71.28
49044;BME280;34860;48.066;14.124;2022-09-09T07:45:58;96509.22;;;15.52;71.43
49044;BME280;34860;48.066;14.124;2022-09-09T07:48:50;96505.31;;;15.59;71.52
49044;BME280;34860;48.066;14.124;2022-09-09T07:51:44;96506.03;;;15.69;71.28
49044;BME280;34860;48.066;14.124;2022-09-09T07:54:35;96514.53;;;15.84;71.02
49044;BME280;34860;48.066;14.124;2022-09-09T07:57:25;96519.44;;;15.98;70.68
49044;BME280;34860;48.066;14.124;2022-09-09T08:00:15;96507.88;;;16.05;70.39
49044;BME280;34860;48.066;14.124;2022-09-09T08:03:11;96512.53;;;16.08;70.53
49044;BME280;34860;48.066;14.124;2022-09-09T08:06:01;96515.53;;;15.95;70.62
49044;BME280;34860;48.066;14.124;2022-09-09T08:08:51;96513.09;;;15.88;70.74
49044;BME280;34860;48.066;14.124;2022-09-09T08:11:41;96520.91;;;15.84;71.04
49044;BME280;34860;48.066;14.124;2022-09-09T08:14:30;96526.03;;;15.86;71.26
49044;BME280;34860;48.066;14.124;2022-09-09T08:17:19;96526.34;;;15.88;71.01
49044;BME280;34860;48.066;14.124;2022-09-09T08:20:10;96518.78;;;15.70;71.82
49044;BME280;34860;48.066;14.124;2022-09-09T08:22:58;96527.38;;;15.66;71.99
49044;BME280;34860;48.066;14.124;2022-09-09T08:25:48;96539.03;;;15.65;71.92
49044;BME280;34860;48.066;14.124;2022-09-09T08:28:39;96540.00;;;15.61;72.15
49044;BME280;34860;48.066;14.124;2022-09-09T08:31:32;96541.56;;;15.62;72.19
49044;BME280;34860;48.066;14.124;2022-09-09T08:34:22;96543.59;;;15.62;72.20
49044;BME280;34860;48.066;14.124;2022-09-09T08:37:13;96537.84;;;15.56;72.55
49044;BME280;34860;48.066;14.124;2022-09-09T08:40:04;96544.69;;;15.55;72.54
49044;BME280;34860;48.066;14.124;2022-09-09T08:42:55;96549.47;;;15.64;72.28
49044;BME280;34860;48.066;14.124;2022-09-09T08:45:51;96559.75;;;15.67;72.03
49044;BME280;34860;48.066;14.124;2022-09-09T08:48:51;96557.53;;;15.71;72.05
49044;BME280;34860;48.066;14.124;2022-09-09T08:51:43;96542.09;;;15.76;71.93
49044;BME280;34860;48.066;14.124;2022-09-09T08:54:34;96546.56;;;15.92;71.62
49044;BME280;34860;48.066;14.124;2022-09-09T08:57:37;96550.78;;;15.87;71.66
49044;BME280;34860;48.066;14.124;2022-09-09T09:00:31;96549.91;;;15.72;71.81
49044;BME280;34860;48.066;14.124;2022-09-09T09:03:28;96543.38;;;15.75;72.15
49044;BME280;34860;48.066;14.124;2022-09-09T09:06:29;96541.00;;;15.83;72.14
49044;BME280;34860;48.066;14.124;2022-09-09T09:09:35;96539.91;;;15.89;72.02
49044;BME280;34860;48.066;14.124;2022-09-09T09:12:33;96549.25;;;15.86;72.05
49044;BME280;34860;48.066;14.124;2022-09-09T09:15:26;96556.09;;;15.76;72.16
49044;BME280;34860;48.066;14.124;2022-09-09T09:18:17;96544.78;;;15.70;72.21
49044;BME280;34860;48.066;14.124;2022-09-09T09:21:11;96544.59;;;15.83;71.97
49044;BME280;34860;48.066;14.124;2022-09-09T09:24:10;96550.38;;;15.79;72.18
49044;BME280;34860;48.066;14.124;2022-09-09T09:27:13;96551.91;;;15.80;72.14
49044;BME280;34860;48.066;14.124;2022-09-09T09:30:15;96551.81;;;15.99;71.69
49044;BME280;34860;48.066;14.124;2022-09-09T09:33:15;96554.50;;;16.17;71.31
49044;BME280;34860;48.066;14.124;2022-09-09T09:36:07;96546.31;;;16.29;70.83
49044;BME280;34860;48.066;14.124;2022-09-09T09:39:00;96559.38;;;16.32;70.67
49044;BME280;34860;48.066;14.124;2022-09-09T09:42:12;96564.41;;;16.28;70.99
49044;BME280;34860;48.066;14.124;2022-09-09T09:45:16;96552.91;;;16.26;71.13
49044;BME280;34860;48.066;14.124;2022-09-09T09:48:12;96548.00;;;16.36;71.01
49044;BME280;34860;48.066;14.124;2022-09-09T09:51:06;96550.91;;;16.41;70.84
49044;BME280;34860;48.066;14.124;2022-09-09T09:54:09;96549.38;;;16.40;70.81
49044;BME280;34860;48.066;14.124;2022-09-09T09:57:11;96557.47;;;16.38;71.38
49044;BME280;34860;48.066;14.124;2022-09-09T10:00:04;96562.50;;;16.34;71.52
49044;BME280;34860;48.066;14.124;2022-09-09T10:03:00;96566.34;;;16.37;71.29
49044;BME280;34860;48.066;14.124;2022-09-09T10:05:52;96555.47;;;16.39;71.42
49044;BME280;34860;48.066;14.124;2022-09-09T10:08:45;96565.53;;;16.45;71.11
49044;BME280;34860;48.066;14.124;2022-09-09T10:11:45;96570.09;;;16.58;70.88
49044;BME280;34860;48.066;14.124;2022-09-09T10:14:42;96574.38;;;16.68;70.77
49044;BME280;34860;48.066;14.124;2022-09-09T10:17:51;96567.06;;;16.70;70.54
49044;BME280;34860;48.066;14.124;2022-09-09T10:20:47;96575.28;;;16.74;70.61
49044;BME280;34860;48.066;14.124;2022-09-09T10:23:55;96567.81;;;16.71;70.76
49044;BME280;34860;48.066;14.124;2022-09-09T10:26:49;96574.09;;;16.66;70.93
49044;BME280;34860;48.066;14.124;2022-09-09T10:29:59;96577.75;;;16.57;71.36
49044;BME280;34860;48.066;14.124;2022-09-09T10:32:57;96574.03;;;16.51;71.66
49044;BME280;34860;48.066;14.124;2022-09-09T10:35:52;96568.03;;;16.43;71.71
49044;BME280;34860;48.066;14.124;2022-09-09T10:38:48;96564.22;;;16.31;71.97
49044;BME280;34860;48.066;14.124;2022-09-09T10:41:45;96570.50;;;16.26;72.34
49044;BME280;34860;48.066;14.124;2022-09-09T10:44:48;96568.50;;;16.42;71.76
49044;BME280;34860;48.066;14.124;2022-09-09T10:48:09;96562.53;;;16.49;71.80
49044;BME280;34860;48.066;14.124;2022-09-09T10:51:23;96564.16;;;16.41;71.99
49044;BME280;34860;48.066;14.124;2022-09-09T10:54:25;96576.50;;;16.58;71.65
49044;BME280;34860;48.066;14.124;2022-09-09T10:57:35;96567.06;;;16.70;71.10
49044;BME280;34860;48.066;14.124;2022-09-09T11:00:31;96556.69;;;16.77;71.20
49044;BME280;34860;48.066;14.124;2022-09-09T11:03:28;96558.44;;;16.74;71.12
49044;BME280;34860;48.066;14.124;2022-09-09T11:06:19;96559.81;;;16.79;71.33
49044;BME280;34860;48.066;14.124;2022-09-09T11:09:15;96555.47;;;16.93;70.68
49044;BME280;34860;48.066;14.124;2022-09-09T11:12:05;96555.59;;;16.98;70.70
49044;BME280;34860;48.066;14.124;2022-09-09T11:15:04;96554.06;;;17.12;70.37
49044;BME280;34860;48.066;14.124;2022-09-09T11:17:56;96553.84;;;17.16;69.99
49044;BME280;34860;48.066;14.124;2022-09-09T11:20:53;96558.22;;;17.17;70.23
49044;BME280;34860;48.066;14.124;2022-09-09T11:23:43;96553.75;;;17.25;70.08
49044;BME280;34860;48.066;14.124;2022-09-09T11:26:41;96549.19;;;17.28;69.96
49044;BME280;34860;48.066;14.124;2022-09-09T11:29:49;96544.06;;;17.26;70.08
49044;BME280;34860;48.066;14.124;2022-09-09T11:33:08;96550.75;;;17.29;70.08
49044;BME280;34860;48.066;14.124;2022-09-09T11:36:16;96559.28;;;17.04;70.38
49044;BME280;34860;48.066;14.124;2022-09-09T11:39:26;96549.84;;;16.93;70.91
49044;BME280;34860;48.066;14.124;2022-09-09T11:42:24;96555.00;;;16.94;71.21
49044;BME280;34860;48.066;14.124;2022-09-09T11:45:21;96560.53;;;17.03;71.01
49044;BME280;34860;48.066;14.124;2022-09-09T11:48:23;96566.78;;;16.83;71.03
49044;BME280;34860;48.066;14.124;2022-09-09T11:51:26;96561.25;;;16.74;71.48
49044;BME280;34860;48.066;14.124;2022-09-09T11:54:28;96566.47;;;16.81;71.35
49044;BME280;34860;48.066;14.124;2022-09-09T11:57:26;96573.91;;;16.69;71.43
49044;BME280;34860;48.066;14.124;2022-09-09T12:00:33;96558.50;;;16.65;71.60
49044;BME280;34860;48.066;14.124;2022-09-09T12:03:40;96561.69;;;16.58;71.85
49044;BME280;34860;48.066;14.124;2022-09-09T12:06:33;96557.34;;;16.57;71.57
49044;BME280;34860;48.066;14.124;2022-09-09T12:09:38;96560.72;;;16.61;71.69
49044;BME280;34860;48.066;14.124;2022-09-09T12:12:33;96559.75;;;16.64;71.52
49044;BME280;34860;48.066;14.124;2022-09-09T12:15:26;96555.81;;;16.70;71.54
49044;BME280;34860;48.066;14.124;2022-09-09T12:18:22;96549.06;;;16.77;71.20
49044;BME280;34860;48.066;14.124;2022-09-09T12:21:19;96551.66;;;16.81;71.33
49044;BME280;34860;48.066;14.124;2022-09-09T12:24:14;96556.03;;;16.82;71.18
49044;BME280;34860;48.066;14.124;2022-09-09T12:27:12;96570.16;;;16.73;71.29
49044;BME280;34860;48.066;14.124;2022-09-09T12:30:09;96567.13;;;16.61;71.54
49044;BME280;34860;48.066;14.124;2022-09-09T12:33:02;96561.31;;;16.65;71.58
49044;BME280;34860;48.066;14.124;2022-09-09T12:35:55;96555.34;;;16.72;71.36
49044;BME280;34860;48.066;14.124;2022-09-09T12:38:46;96550.78;;;16.75;71.03
49044;BME280;34860;48.066;14.124;2022-09-09T12:41:36;96550.56;;;16.63;71.36
49044;BME280;34860;48.066;14.124;2022-09-09T12:44:26;96550.56;;;16.63;71.35
49044;BME280;34860;48.066;14.124;2022-09-09T12:47:17;96557.44;;;16.62;71.30
49044;BME280;34860;48.066;14.124;2022-09-09T12:50:18;96560.72;;;16.61;71.46
49044;BME280;34860;48.066;14.124;2022-09-09T12:53:12;96559.38;;;16.56;71.42
49044;BME280;34860;48.066;14.124;2022-09-09T12:56:06;96562.47;;;16.58;71.51
49044;BME280;34860;48.066;14.124;2022-09-09T12:58:57;96559.00;;;16.63;71.61
49044;BME280;34860;48.066;14.124;2022-09-09T13:01:55;96563.34;;;16.64;71.48
49044;BME280;34860;48.066;14.124;2022-09-09T13:04:44;96563.34;;;16.64;71.40
49044;BME280;34860;48.066;14.124;2022-09-09T13:07:34;96565.34;;;16.49;71.71
49044;BME280;34860;48.066;14.124;2022-09-09T13:10:25;96567.16;;;16.37;72.03
49044;BME280;34860;48.066;14.124;2022-09-09T13:13:19;96552.53;;;16.33;72.36
49044;BME280;34860;48.066;14.124;2022-09-09T13:16:20;96556.09;;;16.33;71.95
49044;BME280;34860;48.066;14.124;2022-09-09T13:19:14;96555.03;;;16.31;71.83
49044;BME280;34860;48.066;14.124;2022-09-09T13:22:11;96548.34;;;16.28;71.80
49044;BME280;34860;48.066;14.124;2022-09-09T13:25:03;96538.97;;;16.31;71.76
49044;BME280;34860;48.066;14.124;2022-09-09T13:28:00;96533.19;;;16.35;71.44
49044;BME280;34860;48.066;14.124;2022-09-09T13:30:57;96531.56;;;16.43;71.38
49044;BME280;34860;48.066;14.124;2022-09-09T13:33:50;96533.72;;;16.48;71.29
49044;BME280;34860;48.066;14.124;2022-09-09T13:36:40;96532.34;;;16.44;71.33
49044;BME280;34860;48.066;14.124;2022-09-09T13:39:29;96546.91;;;16.33;71.52
49044;BME280;34860;48.066;14.124;2022-09-09T13:42:24;96548.63;;;16.30;71.59
49044;BME280;34860;48.066;14.124;2022-09-09T13:45:16;96547.22;;;16.35;71.69
49044;BME280;34860;48.066;14.124;2022-09-09T13:48:10;96541.31;;;16.33;71.60
49044;BME280;34860;48.066;14.124;2022-09-09T13:51:03;96547.59;;;16.28;71.80
49044;BME280;34860;48.066;14.124;2022-09-09T13:53:53;96546.50;;;16.25;71.67
49044;BME280;34860;48.066;14.124;2022-09-09T13:56:42;96540.88;;;16.25;71.67
49044;BME280;34860;48.066;14.124;2022-09-09T13:59:31;96542.44;;;16.26;71.60
49044;BME280;34860;48.066;14.124;2022-09-09T14:02:40;96543.97;;;16.27;71.67
49044;BME280;34860;48.066;14.124;2022-09-09T14:05:30;96546.50;;;16.25;71.75
49044;BME280;34860;48.066;14.124;2022-09-09T14:08:24;96538.88;;;16.26;71.82
49044;BME280;34860;48.066;14.124;2022-09-09T14:11:13;96537.13;;;16.28;71.63
49044;BME280;34860;48.066;14.124;2022-09-09T14:14:02;96535.41;;;16.31;71.54
49044;BME280;34860;48.066;14.124;2022-09-09T14:16:51;96526.19;;;16.30;71.51
49044;BME280;34860;48.066;14.124;2022-09-09T14:19:40;96532.59;;;16.31;71.47
49044;BME280;34860;48.066;14.124;2022-09-09T14:22:29;96521.06;;;16.29;71.52
49044;BME280;34860;48.066;14.124;2022-09-09T14:25:19;96519.34;;;16.31;71.76
49044;BME280;34860;48.066;14.124;2022-09-09T14:28:12;96514.81;;;16.34;71.69
49044;BME280;34860;48.066;14.124;2022-09-09T14:31:03;96524.78;;;16.35;71.56
49044;BME280;34860;48.066;14.124;2022-09-09T14:33:52;96521.97;;;16.35;71.54
49044;BME280;34860;48.066;14.124;2022-09-09T14:36:41;96508.41;;;16.33;71.59
49044;BME280;34860;48.066;14.124;2022-09-09T14:39:31;96504.38;;;16.34;71.72
49044;BME280;34860;48.066;14.124;2022-09-09T14:42:22;96505.75;;;16.39;71.63
49044;BME280;34860;48.066;14.124;2022-09-09T14:45:11;96504.09;;;16.47;71.48
49044;BME280;34860;48.066;14.124;2022-09-09T14:48:00;96507.81;;;16.53;71.30
49044;BME280;34860;48.066;14.124;2022-09-09T14:50:49;96503.06;;;16.60;71.37
49044;BME280;34860;48.066;14.124;2022-09-09T14:53:38;96507.63;;;16.72;71.29
49044;BME280;34860;48.066;14.124;2022-09-09T14:56:29;96508.53;;;16.93;71.11
49044;BME280;34860;48.066;14.124;2022-09-09T14:59:20;96510.84;;;17.10;70.32
49044;BME280;34860;48.066;14.124;2022-09-09T15:02:09;96520.53;;;17.23;70.57
49044;BME280;34860;48.066;14.124;2022-09-09T15:05:01;96520.63;;;17.29;70.48
49044;BME280;34860;48.066;14.124;2022-09-09T15:07:50;96525.06;;;17.36;70.84
49044;BME280;34860;48.066;14.124;2022-09-09T15:10:38;96521.59;;;17.41;70.64